sensor_id;sensor_type;location;lat;lon;timestamp;P1;durP1;ratioP1;P2;durP2;ratioP2
69769;SDS011;57282;52.514;13.458;2023-03-14T00:02:20;5.85;;;2.40;;
69769;SDS011;57282;52.514;13.458;2023-03-14T00:04:47;5.93;;;1.70;;
69769;SDS011;57282;52.514;13.458;2023-03-14T00:07:14;13.13;;;2.55;;
69769;SDS011;57282;52.514;13.458;2023-03-14T00:09:41;19.83;;;6.20;;
69769;SDS011;57282;52.514;13.458;2023-03-14T00:12:08;16.00;;;7.00;;
69769;SDS011;57282;52.514;13.458;2023-03-14T00:14:36;15.60;;;5.43;;
69769;SDS011;57282;52.514;13.458;2023-03-14T00:17:03;11.73;;;5.13;;
69769;SDS011;57282;52.514;13.458;2023-03-14T00:19:30;13.07;;;6.07;;
69769;SDS011;57282;52.514;13.458;2023-03-14T00:21:57;14.67;;;5.73;;
69769;SDS011;57282;52.514;13.458;2023-03-14T00:24:24;11.88;;;4.85;;
69769;SDS011;57282;52.514;13.458;2023-03-14T00:26:51;12.57;;;5.90;;
69769;SDS011;57282;52.514;13.458;2023-03-14T00:29:17;15.75;;;6.03;;
69769;SDS011;57282;52.514;13.458;2023-03-14T00:31:46;19.40;;;7.55;;
69769;SDS011;57282;52.514;13.458;2023-03-14T00:34:13;14.87;;;6.13;;
69769;SDS011;57282;52.514;13.458;2023-03-14T00:36:39;15.40;;;6.68;;
69769;SDS011;57282;52.514;13.458;2023-03-14T00:39:06;16.75;;;6.78;;
69769;SDS011;57282;52.514;13.458;2023-03-14T00:41:33;15.00;;;6.93;;
69769;SDS011;57282;52.514;13.458;2023-03-14T00:44:00;14.18;;;7.07;;
69769;SDS011;57282;52.514;13.458;2023-03-14T00:46:27;18.73;;;7.87;;
69769;SDS011;57282;52.514;13.458;2023-03-14T00:48:55;15.57;;;7.50;;
69769;SDS011;57282;52.514;13.458;2023-03-14T00:51:22;16.02;;;7.85;;
69769;SDS011;57282;52.514;13.458;2023-03-14T00:53:49;15.43;;;7.03;;
69769;SDS011;57282;52.514;13.458;2023-03-14T00:56:16;14.40;;;7.32;;
69769;SDS011;57282;52.514;13.458;2023-03-14T00:58:42;17.13;;;8.67;;
69769;SDS011;57282;52.514;13.458;2023-03-14T01:01:12;16.60;;;7.88;;
69769;SDS011;57282;52.514;13.458;2023-03-14T01:03:40;17.83;;;7.43;;
69769;SDS011;57282;52.514;13.458;2023-03-14T01:06:10;17.10;;;8.05;;
69769;SDS011;57282;52.514;13.458;2023-03-14T01:08:38;18.60;;;9.15;;
69769;SDS011;57282;52.514;13.458;2023-03-14T01:11:06;16.23;;;8.03;;
69769;SDS011;57282;52.514;13.458;2023-03-14T01:13:34;19.20;;;7.93;;
69769;SDS011;57282;52.514;13.458;2023-03-14T01:16:02;20.63;;;8.52;;
69769;SDS011;57282;52.514;13.458;2023-03-14T01:18:30;18.60;;;8.35;;
69769;SDS011;57282;52.514;13.458;2023-03-14T01:20:57;17.67;;;8.05;;
69769;SDS011;57282;52.514;13.458;2023-03-14T01:23:26;19.20;;;9.00;;
69769;SDS011;57282;52.514;13.458;2023-03-14T01:25:53;20.73;;;8.63;;
69769;SDS011;57282;52.514;13.458;2023-03-14T01:28:20;20.45;;;9.60;;
69769;SDS011;57282;52.514;13.458;2023-03-14T01:30:47;20.20;;;9.07;;
69769;SDS011;57282;52.514;13.458;2023-03-14T01:33:14;19.77;;;9.07;;
69769;SDS011;57282;52.514;13.458;2023-03-14T01:35:40;20.60;;;10.00;;
69769;SDS011;57282;52.514;13.458;2023-03-14T01:38:07;19.35;;;8.85;;
69769;SDS011;57282;52.514;13.458;2023-03-14T01:40:40;21.13;;;9.02;;
69769;SDS011;57282;52.514;13.458;2023-03-14T01:43:13;20.70;;;10.35;;
69769;SDS011;57282;52.514;13.458;2023-03-14T01:48:44;19.60;;;9.47;;
69769;SDS011;57282;52.514;13.458;2023-03-14T01:51:17;21.63;;;10.18;;
69769;SDS011;57282;52.514;13.458;2023-03-14T01:53:48;20.70;;;10.18;;
69769;SDS011;57282;52.514;13.458;2023-03-14T01:56:18;21.08;;;10.20;;
69769;SDS011;57282;52.514;13.458;2023-03-14T01:58:46;21.52;;;10.15;;
69769;SDS011;57282;52.514;13.458;2023-03-14T02:01:18;21.07;;;9.77;;
69769;SDS011;57282;52.514;13.458;2023-03-14T02:03:48;22.77;;;10.68;;
69769;SDS011;57282;52.514;13.458;2023-03-14T02:06:19;23.30;;;11.25;;
69769;SDS011;57282;52.514;13.458;2023-03-14T02:08:50;22.35;;;10.60;;
69769;SDS011;57282;52.514;13.458;2023-03-14T02:11:18;23.42;;;10.88;;
69769;SDS011;57282;52.514;13.458;2023-03-14T02:13:45;21.97;;;10.90;;
69769;SDS011;57282;52.514;13.458;2023-03-14T02:16:12;24.05;;;12.10;;
69769;SDS011;57282;52.514;13.458;2023-03-14T02:18:39;23.80;;;11.13;;
69769;SDS011;57282;52.514;13.458;2023-03-14T02:21:09;22.40;;;10.43;;
69769;SDS011;57282;52.514;13.458;2023-03-14T02:23:43;27.00;;;12.02;;
69769;SDS011;57282;52.514;13.458;2023-03-14T02:26:25;28.03;;;11.80;;
69769;SDS011;57282;52.514;13.458;2023-03-14T02:28:56;24.38;;;11.73;;
69769;SDS011;57282;52.514;13.458;2023-03-14T02:31:24;25.08;;;11.05;;
69769;SDS011;57282;52.514;13.458;2023-03-14T02:33:51;22.38;;;11.15;;
69769;SDS011;57282;52.514;13.458;2023-03-14T02:36:18;25.77;;;12.20;;
69769;SDS011;57282;52.514;13.458;2023-03-14T02:38:47;22.87;;;11.33;;
69769;SDS011;57282;52.514;13.458;2023-03-14T02:41:18;24.98;;;12.18;;
69769;SDS011;57282;52.514;13.458;2023-03-14T02:43:45;22.77;;;11.27;;
69769;SDS011;57282;52.514;13.458;2023-03-14T02:46:14;25.73;;;11.70;;
69769;SDS011;57282;52.514;13.458;2023-03-14T02:48:45;22.85;;;11.27;;
69769;SDS011;57282;52.514;13.458;2023-03-14T02:51:14;25.33;;;12.10;;
69769;SDS011;57282;52.514;13.458;2023-03-14T02:53:41;24.58;;;11.93;;
69769;SDS011;57282;52.514;13.458;2023-03-14T02:56:09;25.65;;;11.55;;
69769;SDS011;57282;52.514;13.458;2023-03-14T02:58:36;27.27;;;12.52;;
69769;SDS011;57282;52.514;13.458;2023-03-14T03:01:03;27.10;;;12.05;;
69769;SDS011;57282;52.514;13.458;2023-03-14T03:03:32;26.67;;;12.40;;
69769;SDS011;57282;52.514;13.458;2023-03-14T03:05:59;27.70;;;12.68;;
69769;SDS011;57282;52.514;13.458;2023-03-14T03:08:26;25.88;;;11.80;;
69769;SDS011;57282;52.514;13.458;2023-03-14T03:10:53;24.17;;;12.57;;
69769;SDS011;57282;52.514;13.458;2023-03-14T03:13:20;25.85;;;12.23;;
69769;SDS011;57282;52.514;13.458;2023-03-14T03:15:47;24.43;;;12.13;;
69769;SDS011;57282;52.514;13.458;2023-03-14T03:18:14;27.17;;;12.02;;
69769;SDS011;57282;52.514;13.458;2023-03-14T03:20:42;25.55;;;11.90;;
69769;SDS011;57282;52.514;13.458;2023-03-14T03:23:09;24.42;;;11.77;;
69769;SDS011;57282;52.514;13.458;2023-03-14T03:25:36;24.08;;;12.10;;
69769;SDS011;57282;52.514;13.458;2023-03-14T03:28:03;26.33;;;12.33;;
69769;SDS011;57282;52.514;13.458;2023-03-14T03:30:33;25.42;;;12.00;;
69769;SDS011;57282;52.514;13.458;2023-03-14T03:33:03;25.63;;;12.80;;
69769;SDS011;57282;52.514;13.458;2023-03-14T03:35:29;26.40;;;12.68;;
69769;SDS011;57282;52.514;13.458;2023-03-14T03:37:58;24.40;;;11.93;;
69769;SDS011;57282;52.514;13.458;2023-03-14T03:40:25;23.40;;;12.63;;
69769;SDS011;57282;52.514;13.458;2023-03-14T03:42:52;24.40;;;12.35;;
69769;SDS011;57282;52.514;13.458;2023-03-14T03:45:19;24.67;;;12.27;;
69769;SDS011;57282;52.514;13.458;2023-03-14T03:47:46;24.95;;;12.05;;
69769;SDS011;57282;52.514;13.458;2023-03-14T03:50:13;26.92;;;12.73;;
69769;SDS011;57282;52.514;13.458;2023-03-14T03:52:40;25.33;;;12.13;;
69769;SDS011;57282;52.514;13.458;2023-03-14T03:55:08;25.65;;;12.00;;
69769;SDS011;57282;52.514;13.458;2023-03-14T03:57:35;25.58;;;12.45;;
69769;SDS011;57282;52.514;13.458;2023-03-14T04:00:02;26.33;;;12.70;;
69769;SDS011;57282;52.514;13.458;2023-03-14T04:02:32;26.85;;;12.60;;
69769;SDS011;57282;52.514;13.458;2023-03-14T04:04:58;23.27;;;11.40;;
69769;SDS011;57282;52.514;13.458;2023-03-14T04:07:25;25.65;;;12.50;;
69769;SDS011;57282;52.514;13.458;2023-03-14T04:09:52;22.00;;;11.52;;
69769;SDS011;57282;52.514;13.458;2023-03-14T04:12:20;24.05;;;11.38;;
69769;SDS011;57282;52.514;13.458;2023-03-14T04:14:47;23.15;;;11.75;;
69769;SDS011;57282;52.514;13.458;2023-03-14T04:17:14;26.63;;;12.60;;
69769;SDS011;57282;52.514;13.458;2023-03-14T04:19:41;25.48;;;12.23;;
69769;SDS011;57282;52.514;13.458;2023-03-14T04:22:08;25.92;;;12.50;;
69769;SDS011;57282;52.514;13.458;2023-03-14T04:24:35;25.48;;;12.82;;
69769;SDS011;57282;52.514;13.458;2023-03-14T04:27:01;25.08;;;11.80;;
69769;SDS011;57282;52.514;13.458;2023-03-14T04:29:30;24.60;;;12.03;;
69769;SDS011;57282;52.514;13.458;2023-03-14T04:31:57;24.25;;;12.13;;
69769;SDS011;57282;52.514;13.458;2023-03-14T04:34:23;25.70;;;12.00;;
69769;SDS011;57282;52.514;13.458;2023-03-14T04:36:50;25.38;;;12.07;;
69769;SDS011;57282;52.514;13.458;2023-03-14T04:39:17;26.45;;;13.13;;
69769;SDS011;57282;52.514;13.458;2023-03-14T04:41:44;25.67;;;12.70;;
69769;SDS011;57282;52.514;13.458;2023-03-14T04:44:11;25.13;;;12.13;;
69769;SDS011;57282;52.514;13.458;2023-03-14T04:46:40;24.90;;;11.57;;
69769;SDS011;57282;52.514;13.458;2023-03-14T04:49:07;25.77;;;12.48;;
69769;SDS011;57282;52.514;13.458;2023-03-14T04:51:33;25.05;;;12.07;;
69769;SDS011;57282;52.514;13.458;2023-03-14T04:54:00;27.17;;;12.67;;
69769;SDS011;57282;52.514;13.458;2023-03-14T04:56:27;24.83;;;12.48;;
69769;SDS011;57282;52.514;13.458;2023-03-14T04:58:54;25.38;;;11.88;;
69769;SDS011;57282;52.514;13.458;2023-03-14T05:01:21;24.15;;;12.05;;
69769;SDS011;57282;52.514;13.458;2023-03-14T05:03:49;26.58;;;13.15;;
69769;SDS011;57282;52.514;13.458;2023-03-14T05:06:16;24.27;;;12.40;;
69769;SDS011;57282;52.514;13.458;2023-03-14T05:08:43;24.60;;;11.98;;
69769;SDS011;57282;52.514;13.458;2023-03-14T05:11:10;26.10;;;12.48;;
69769;SDS011;57282;52.514;13.458;2023-03-14T05:13:38;24.70;;;11.55;;
69769;SDS011;57282;52.514;13.458;2023-03-14T05:16:05;24.48;;;11.93;;
69769;SDS011;57282;52.514;13.458;2023-03-14T05:18:33;25.20;;;12.60;;
69769;SDS011;57282;52.514;13.458;2023-03-14T05:21:01;24.13;;;12.00;;
69769;SDS011;57282;52.514;13.458;2023-03-14T05:23:28;24.20;;;11.00;;
69769;SDS011;57282;52.514;13.458;2023-03-14T05:25:55;23.98;;;11.93;;
69769;SDS011;57282;52.514;13.458;2023-03-14T05:28:22;25.10;;;11.75;;
69769;SDS011;57282;52.514;13.458;2023-03-14T05:30:49;22.90;;;12.13;;
69769;SDS011;57282;52.514;13.458;2023-03-14T05:33:16;24.75;;;12.23;;
69769;SDS011;57282;52.514;13.458;2023-03-14T05:35:43;25.70;;;12.20;;
69769;SDS011;57282;52.514;13.458;2023-03-14T05:38:11;24.35;;;11.77;;
69769;SDS011;57282;52.514;13.458;2023-03-14T05:40:38;24.70;;;12.23;;
69769;SDS011;57282;52.514;13.458;2023-03-14T05:43:05;23.67;;;12.10;;
69769;SDS011;57282;52.514;13.458;2023-03-14T05:45:33;22.52;;;11.32;;
69769;SDS011;57282;52.514;13.458;2023-03-14T05:48:01;23.38;;;11.82;;
69769;SDS011;57282;52.514;13.458;2023-03-14T05:50:27;25.55;;;11.70;;
69769;SDS011;57282;52.514;13.458;2023-03-14T05:52:54;24.35;;;12.38;;
69769;SDS011;57282;52.514;13.458;2023-03-14T05:55:22;24.03;;;12.00;;
69769;SDS011;57282;52.514;13.458;2023-03-14T05:57:49;23.80;;;11.27;;
69769;SDS011;57282;52.514;13.458;2023-03-14T06:00:16;24.77;;;12.23;;
69769;SDS011;57282;52.514;13.458;2023-03-14T06:02:44;23.45;;;11.88;;
69769;SDS011;57282;52.514;13.458;2023-03-14T06:05:11;23.20;;;11.63;;
69769;SDS011;57282;52.514;13.458;2023-03-14T06:07:38;24.03;;;11.93;;
69769;SDS011;57282;52.514;13.458;2023-03-14T06:10:05;22.60;;;11.40;;
69769;SDS011;57282;52.514;13.458;2023-03-14T06:12:34;22.73;;;11.82;;
69769;SDS011;57282;52.514;13.458;2023-03-14T06:15:01;24.10;;;12.38;;
69769;SDS011;57282;52.514;13.458;2023-03-14T06:17:28;24.60;;;12.00;;
69769;SDS011;57282;52.514;13.458;2023-03-14T06:19:55;23.30;;;11.93;;
69769;SDS011;57282;52.514;13.458;2023-03-14T06:22:21;25.00;;;12.02;;
69769;SDS011;57282;52.514;13.458;2023-03-14T06:24:49;24.10;;;11.40;;
69769;SDS011;57282;52.514;13.458;2023-03-14T06:27:16;23.45;;;11.55;;
69769;SDS011;57282;52.514;13.458;2023-03-14T06:29:44;24.20;;;11.65;;
69769;SDS011;57282;52.514;13.458;2023-03-14T06:32:11;22.57;;;11.37;;
69769;SDS011;57282;52.514;13.458;2023-03-14T06:34:37;21.90;;;10.38;;
69769;SDS011;57282;52.514;13.458;2023-03-14T06:37:05;24.77;;;10.90;;
69769;SDS011;57282;52.514;13.458;2023-03-14T06:39:32;21.63;;;11.07;;
69769;SDS011;57282;52.514;13.458;2023-03-14T06:42:00;23.90;;;11.25;;
69769;SDS011;57282;52.514;13.458;2023-03-14T06:44:26;22.37;;;11.03;;
69769;SDS011;57282;52.514;13.458;2023-03-14T06:46:55;23.90;;;10.93;;
69769;SDS011;57282;52.514;13.458;2023-03-14T06:49:21;23.08;;;11.40;;
69769;SDS011;57282;52.514;13.458;2023-03-14T06:51:48;21.65;;;10.40;;
69769;SDS011;57282;52.514;13.458;2023-03-14T06:54:15;22.63;;;10.65;;
69769;SDS011;57282;52.514;13.458;2023-03-14T06:56:42;23.47;;;11.53;;
69769;SDS011;57282;52.514;13.458;2023-03-14T06:59:09;22.08;;;10.82;;
69769;SDS011;57282;52.514;13.458;2023-03-14T07:01:36;22.42;;;11.15;;
69769;SDS011;57282;52.514;13.458;2023-03-14T07:04:04;23.30;;;11.32;;
69769;SDS011;57282;52.514;13.458;2023-03-14T07:06:31;22.92;;;11.80;;
69769;SDS011;57282;52.514;13.458;2023-03-14T07:08:59;21.30;;;10.77;;
69769;SDS011;57282;52.514;13.458;2023-03-14T07:11:26;20.42;;;10.23;;
69769;SDS011;57282;52.514;13.458;2023-03-14T07:13:53;20.40;;;11.35;;
69769;SDS011;57282;52.514;13.458;2023-03-14T07:16:20;22.40;;;11.18;;
69769;SDS011;57282;52.514;13.458;2023-03-14T07:18:47;21.90;;;10.30;;
69769;SDS011;57282;52.514;13.458;2023-03-14T07:21:15;19.73;;;9.60;;
69769;SDS011;57282;52.514;13.458;2023-03-14T07:23:43;22.70;;;10.25;;
69769;SDS011;57282;52.514;13.458;2023-03-14T07:26:09;8.20;;;3.50;;
69769;SDS011;57282;52.514;13.458;2023-03-14T07:28:36;6.43;;;2.10;;
69769;SDS011;57282;52.514;13.458;2023-03-14T07:31:03;6.18;;;2.05;;
69769;SDS011;57282;52.514;13.458;2023-03-14T07:33:31;5.23;;;1.47;;
69769;SDS011;57282;52.514;13.458;2023-03-14T07:35:58;3.50;;;0.95;;
69769;SDS011;57282;52.514;13.458;2023-03-14T07:38:26;4.25;;;0.70;;
69769;SDS011;57282;52.514;13.458;2023-03-14T07:40:57;3.42;;;1.08;;
69769;SDS011;57282;52.514;13.458;2023-03-14T07:43:25;3.05;;;1.13;;
69769;SDS011;57282;52.514;13.458;2023-03-14T07:45:52;4.17;;;1.10;;
69769;SDS011;57282;52.514;13.458;2023-03-14T07:48:19;8.00;;;0.88;;
69769;SDS011;57282;52.514;13.458;2023-03-14T07:50:48;9.75;;;1.23;;
69769;SDS011;57282;52.514;13.458;2023-03-14T07:53:15;4.07;;;0.70;;
69769;SDS011;57282;52.514;13.458;2023-03-14T07:55:43;6.25;;;1.17;;
69769;SDS011;57282;52.514;13.458;2023-03-14T07:58:11;10.57;;;1.07;;
69769;SDS011;57282;52.514;13.458;2023-03-14T08:00:38;5.72;;;1.10;;
69769;SDS011;57282;52.514;13.458;2023-03-14T08:03:05;7.53;;;0.90;;
69769;SDS011;57282;52.514;13.458;2023-03-14T08:05:33;6.55;;;1.63;;
69769;SDS011;57282;52.514;13.458;2023-03-14T08:08:01;7.05;;;1.23;;
69769;SDS011;57282;52.514;13.458;2023-03-14T08:10:28;4.60;;;1.27;;
69769;SDS011;57282;52.514;13.458;2023-03-14T08:12:56;5.80;;;1.65;;
69769;SDS011;57282;52.514;13.458;2023-03-14T08:15:24;7.60;;;1.88;;
69769;SDS011;57282;52.514;13.458;2023-03-14T08:17:51;7.35;;;2.13;;
69769;SDS011;57282;52.514;13.458;2023-03-14T08:20:19;8.00;;;2.00;;
69769;SDS011;57282;52.514;13.458;2023-03-14T08:22:47;7.03;;;2.70;;
69769;SDS011;57282;52.514;13.458;2023-03-14T08:25:14;14.80;;;6.03;;
69769;SDS011;57282;52.514;13.458;2023-03-14T08:27:41;15.18;;;6.80;;
69769;SDS011;57282;52.514;13.458;2023-03-14T08:30:10;19.73;;;7.13;;
69769;SDS011;57282;52.514;13.458;2023-03-14T08:32:38;19.92;;;6.72;;
69769;SDS011;57282;52.514;13.458;2023-03-14T08:35:05;8.53;;;2.20;;
69769;SDS011;57282;52.514;13.458;2023-03-14T08:37:33;7.10;;;2.08;;
69769;SDS011;57282;52.514;13.458;2023-03-14T08:40:01;9.57;;;1.70;;
69769;SDS011;57282;52.514;13.458;2023-03-14T08:42:31;4.50;;;1.17;;
69769;SDS011;57282;52.514;13.458;2023-03-14T08:44:58;7.70;;;1.50;;
69769;SDS011;57282;52.514;13.458;2023-03-14T08:47:26;4.53;;;1.50;;
69769;SDS011;57282;52.514;13.458;2023-03-14T08:49:54;6.07;;;1.40;;
69769;SDS011;57282;52.514;13.458;2023-03-14T08:52:21;6.90;;;1.38;;
69769;SDS011;57282;52.514;13.458;2023-03-14T08:54:47;6.88;;;1.30;;
69769;SDS011;57282;52.514;13.458;2023-03-14T08:57:14;10.73;;;3.05;;
69769;SDS011;57282;52.514;13.458;2023-03-14T08:59:41;9.37;;;3.40;;
69769;SDS011;57282;52.514;13.458;2023-03-14T09:02:09;11.55;;;2.92;;
69769;SDS011;57282;52.514;13.458;2023-03-14T09:04:38;10.27;;;3.20;;
69769;SDS011;57282;52.514;13.458;2023-03-14T09:07:05;11.68;;;3.03;;
69769;SDS011;57282;52.514;13.458;2023-03-14T09:09:32;9.00;;;3.35;;
69769;SDS011;57282;52.514;13.458;2023-03-14T09:11:59;8.73;;;3.67;;
69769;SDS011;57282;52.514;13.458;2023-03-14T09:14:26;31.65;;;4.65;;
69769;SDS011;57282;52.514;13.458;2023-03-14T09:16:52;16.30;;;3.47;;
69769;SDS011;57282;52.514;13.458;2023-03-14T09:19:19;12.43;;;3.60;;
69769;SDS011;57282;52.514;13.458;2023-03-14T09:21:48;13.95;;;4.18;;
69769;SDS011;57282;52.514;13.458;2023-03-14T09:24:15;12.87;;;3.90;;
69769;SDS011;57282;52.514;13.458;2023-03-14T09:26:42;17.23;;;4.55;;
69769;SDS011;57282;52.514;13.458;2023-03-14T09:29:10;14.55;;;4.80;;
69769;SDS011;57282;52.514;13.458;2023-03-14T09:31:37;11.15;;;3.40;;
69769;SDS011;57282;52.514;13.458;2023-03-14T09:34:03;11.45;;;4.13;;
69769;SDS011;57282;52.514;13.458;2023-03-14T09:36:30;13.37;;;4.83;;
69769;SDS011;57282;52.514;13.458;2023-03-14T09:38:59;16.20;;;4.45;;
69769;SDS011;57282;52.514;13.458;2023-03-14T09:41:26;11.45;;;4.35;;
69769;SDS011;57282;52.514;13.458;2023-03-14T09:43:58;15.77;;;4.60;;
69769;SDS011;57282;52.514;13.458;2023-03-14T09:46:30;15.20;;;4.82;;
69769;SDS011;57282;52.514;13.458;2023-03-14T09:49:02;12.83;;;5.80;;
69769;SDS011;57282;52.514;13.458;2023-03-14T09:51:34;12.80;;;5.28;;
69769;SDS011;57282;52.514;13.458;2023-03-14T09:54:02;17.48;;;6.15;;
69769;SDS011;57282;52.514;13.458;2023-03-14T09:56:32;18.27;;;6.18;;
69769;SDS011;57282;52.514;13.458;2023-03-14T09:59:00;15.00;;;6.47;;
69769;SDS011;57282;52.514;13.458;2023-03-14T10:01:29;18.33;;;6.43;;
69769;SDS011;57282;52.514;13.458;2023-03-14T10:03:58;19.83;;;6.95;;
69769;SDS011;57282;52.514;13.458;2023-03-14T10:06:29;19.80;;;6.97;;
69769;SDS011;57282;52.514;13.458;2023-03-14T10:08:56;18.55;;;6.97;;
69769;SDS011;57282;52.514;13.458;2023-03-14T10:11:25;16.08;;;6.55;;
69769;SDS011;57282;52.514;13.458;2023-03-14T10:14:02;17.53;;;6.40;;
69769;SDS011;57282;52.514;13.458;2023-03-14T10:16:32;22.50;;;7.43;;
69769;SDS011;57282;52.514;13.458;2023-03-14T10:19:01;17.55;;;7.50;;
69769;SDS011;57282;52.514;13.458;2023-03-14T10:21:30;19.65;;;7.78;;
69769;SDS011;57282;52.514;13.458;2023-03-14T10:24:17;20.25;;;7.75;;
69769;SDS011;57282;52.514;13.458;2023-03-14T10:26:49;20.70;;;7.33;;
69769;SDS011;57282;52.514;13.458;2023-03-14T10:29:18;19.05;;;7.28;;
69769;SDS011;57282;52.514;13.458;2023-03-14T10:31:47;18.13;;;7.22;;
69769;SDS011;57282;52.514;13.458;2023-03-14T10:34:21;18.08;;;7.93;;
69769;SDS011;57282;52.514;13.458;2023-03-14T10:36:53;19.17;;;7.03;;
69769;SDS011;57282;52.514;13.458;2023-03-14T10:39:23;18.73;;;7.80;;
69769;SDS011;57282;52.514;13.458;2023-03-14T10:42:03;18.92;;;7.60;;
69769;SDS011;57282;52.514;13.458;2023-03-14T10:44:33;25.10;;;8.82;;
69769;SDS011;57282;52.514;13.458;2023-03-14T10:47:02;18.35;;;8.45;;
69769;SDS011;57282;52.514;13.458;2023-03-14T10:49:30;18.15;;;7.47;;
69769;SDS011;57282;52.514;13.458;2023-03-14T10:52:00;22.17;;;8.67;;
69769;SDS011;57282;52.514;13.458;2023-03-14T10:54:38;19.95;;;8.82;;
69769;SDS011;57282;52.514;13.458;2023-03-14T10:57:06;19.27;;;8.90;;
69769;SDS011;57282;52.514;13.458;2023-03-14T10:59:34;19.65;;;8.50;;
69769;SDS011;57282;52.514;13.458;2023-03-14T11:02:03;18.70;;;8.02;;
69769;SDS011;57282;52.514;13.458;2023-03-14T11:04:44;19.07;;;8.43;;
69769;SDS011;57282;52.514;13.458;2023-03-14T11:07:22;17.50;;;7.45;;
69769;SDS011;57282;52.514;13.458;2023-03-14T11:09:54;18.42;;;7.82;;
69769;SDS011;57282;52.514;13.458;2023-03-14T11:12:38;18.35;;;8.00;;
69769;SDS011;57282;52.514;13.458;2023-03-14T11:15:14;18.63;;;8.00;;
69769;SDS011;57282;52.514;13.458;2023-03-14T11:17:47;18.80;;;8.20;;
69769;SDS011;57282;52.514;13.458;2023-03-14T11:20:26;18.95;;;8.48;;
69769;SDS011;57282;52.514;13.458;2023-03-14T11:23:03;20.15;;;9.02;;
69769;SDS011;57282;52.514;13.458;2023-03-14T11:25:39;19.50;;;8.38;;
69769;SDS011;57282;52.514;13.458;2023-03-14T11:28:16;19.30;;;7.97;;
69769;SDS011;57282;52.514;13.458;2023-03-14T11:30:47;18.07;;;8.30;;
69769;SDS011;57282;52.514;13.458;2023-03-14T11:33:17;20.15;;;8.77;;
69769;SDS011;57282;52.514;13.458;2023-03-14T11:35:52;19.80;;;8.50;;
69769;SDS011;57282;52.514;13.458;2023-03-14T11:38:28;17.42;;;8.45;;
69769;SDS011;57282;52.514;13.458;2023-03-14T11:40:57;17.73;;;8.25;;
69769;SDS011;57282;52.514;13.458;2023-03-14T11:43:28;18.60;;;8.70;;
69769;SDS011;57282;52.514;13.458;2023-03-14T11:45:57;23.83;;;9.57;;
69769;SDS011;57282;52.514;13.458;2023-03-14T11:48:30;19.33;;;8.27;;
69769;SDS011;57282;52.514;13.458;2023-03-14T11:51:04;22.27;;;9.32;;
69769;SDS011;57282;52.514;13.458;2023-03-14T11:53:39;21.55;;;9.25;;
69769;SDS011;57282;52.514;13.458;2023-03-14T11:56:14;23.20;;;9.57;;
69769;SDS011;57282;52.514;13.458;2023-03-14T11:58:49;20.40;;;8.75;;
69769;SDS011;57282;52.514;13.458;2023-03-14T12:01:20;21.10;;;9.48;;
69769;SDS011;57282;52.514;13.458;2023-03-14T12:03:54;18.67;;;8.80;;
69769;SDS011;57282;52.514;13.458;2023-03-14T12:06:29;21.77;;;9.02;;
69769;SDS011;57282;52.514;13.458;2023-03-14T12:09:02;18.20;;;8.70;;
69769;SDS011;57282;52.514;13.458;2023-03-14T12:11:34;20.70;;;9.13;;
69769;SDS011;57282;52.514;13.458;2023-03-14T12:14:16;21.30;;;10.05;;
69769;SDS011;57282;52.514;13.458;2023-03-14T12:16:52;20.50;;;8.60;;
69769;SDS011;57282;52.514;13.458;2023-03-14T12:22:08;19.57;;;9.20;;
69769;SDS011;57282;52.514;13.458;2023-03-14T12:24:45;20.83;;;9.02;;
69769;SDS011;57282;52.514;13.458;2023-03-14T12:30:24;21.92;;;9.43;;
69769;SDS011;57282;52.514;13.458;2023-03-14T12:36:02;25.87;;;9.67;;
69769;SDS011;57282;52.514;13.458;2023-03-14T12:38:40;20.70;;;9.70;;
69769;SDS011;57282;52.514;13.458;2023-03-14T12:41:14;20.83;;;9.18;;
69769;SDS011;57282;52.514;13.458;2023-03-14T12:43:43;21.73;;;9.38;;
69769;SDS011;57282;52.514;13.458;2023-03-14T12:46:21;19.90;;;8.93;;
69769;SDS011;57282;52.514;13.458;2023-03-14T12:48:50;21.63;;;9.73;;
69769;SDS011;57282;52.514;13.458;2023-03-14T12:51:26;22.42;;;9.77;;
69769;SDS011;57282;52.514;13.458;2023-03-14T12:56:58;21.20;;;9.15;;
69769;SDS011;57282;52.514;13.458;2023-03-14T12:59:33;22.70;;;10.00;;
69769;SDS011;57282;52.514;13.458;2023-03-14T13:02:02;23.93;;;10.00;;
69769;SDS011;57282;52.514;13.458;2023-03-14T13:04:48;22.20;;;10.63;;
69769;SDS011;57282;52.514;13.458;2023-03-14T13:07:32;22.52;;;8.85;;
69769;SDS011;57282;52.514;13.458;2023-03-14T13:10:16;23.92;;;10.77;;
69769;SDS011;57282;52.514;13.458;2023-03-14T13:12:48;23.75;;;9.60;;
69769;SDS011;57282;52.514;13.458;2023-03-14T13:15:18;22.57;;;10.47;;
69769;SDS011;57282;52.514;13.458;2023-03-14T13:17:51;23.88;;;11.02;;
69769;SDS011;57282;52.514;13.458;2023-03-14T13:20:21;24.50;;;10.52;;
69769;SDS011;57282;52.514;13.458;2023-03-14T13:22:53;24.70;;;11.07;;
69769;SDS011;57282;52.514;13.458;2023-03-14T13:25:20;23.27;;;10.13;;
69769;SDS011;57282;52.514;13.458;2023-03-14T13:27:48;25.00;;;10.80;;
69769;SDS011;57282;52.514;13.458;2023-03-14T13:30:17;25.95;;;11.32;;
69769;SDS011;57282;52.514;13.458;2023-03-14T13:32:46;25.20;;;11.00;;
69769;SDS011;57282;52.514;13.458;2023-03-14T13:35:18;23.67;;;11.27;;
69769;SDS011;57282;52.514;13.458;2023-03-14T13:37:47;24.38;;;11.07;;
69769;SDS011;57282;52.514;13.458;2023-03-14T13:40:20;22.50;;;10.77;;
69769;SDS011;57282;52.514;13.458;2023-03-14T13:42:59;25.20;;;11.60;;
69769;SDS011;57282;52.514;13.458;2023-03-14T13:45:30;22.20;;;9.77;;
69769;SDS011;57282;52.514;13.458;2023-03-14T13:47:57;25.38;;;11.73;;
69769;SDS011;57282;52.514;13.458;2023-03-14T13:50:25;25.30;;;11.18;;
69769;SDS011;57282;52.514;13.458;2023-03-14T13:52:56;23.07;;;10.87;;
69769;SDS011;57282;52.514;13.458;2023-03-14T13:55:23;26.35;;;11.38;;
69769;SDS011;57282;52.514;13.458;2023-03-14T13:57:51;25.08;;;11.60;;
69769;SDS011;57282;52.514;13.458;2023-03-14T14:00:20;27.52;;;12.60;;
69769;SDS011;57282;52.514;13.458;2023-03-14T14:02:51;26.80;;;12.10;;
69769;SDS011;57282;52.514;13.458;2023-03-14T14:05:19;26.13;;;11.57;;
69769;SDS011;57282;52.514;13.458;2023-03-14T14:07:48;24.92;;;11.90;;
69769;SDS011;57282;52.514;13.458;2023-03-14T14:10:16;26.60;;;11.45;;
69769;SDS011;57282;52.514;13.458;2023-03-14T14:12:45;22.48;;;11.10;;
69769;SDS011;57282;52.514;13.458;2023-03-14T14:15:16;23.60;;;11.07;;
69769;SDS011;57282;52.514;13.458;2023-03-14T14:17:46;27.13;;;11.20;;
69769;SDS011;57282;52.514;13.458;2023-03-14T14:20:20;25.73;;;12.02;;
69769;SDS011;57282;52.514;13.458;2023-03-14T14:22:50;25.45;;;12.32;;
69769;SDS011;57282;52.514;13.458;2023-03-14T14:25:18;28.15;;;12.32;;
69769;SDS011;57282;52.514;13.458;2023-03-14T14:27:46;25.92;;;11.45;;
69769;SDS011;57282;52.514;13.458;2023-03-14T14:33:15;26.75;;;12.65;;
69769;SDS011;57282;52.514;13.458;2023-03-14T14:35:49;26.13;;;13.00;;
69769;SDS011;57282;52.514;13.458;2023-03-14T14:38:19;27.58;;;12.60;;
69769;SDS011;57282;52.514;13.458;2023-03-14T14:40:48;27.02;;;12.73;;
69769;SDS011;57282;52.514;13.458;2023-03-14T14:43:17;26.47;;;12.77;;
69769;SDS011;57282;52.514;13.458;2023-03-14T14:45:47;29.15;;;13.52;;